Time;durP1;ratioP1;P1;durP2;ratioP2;P2;SDS_P1;SDS_P2;PMS_P1;PMS_P2;Temp;Humidity;BMP_temperature;BMP_pressure;BME280_temperature;BME280_humidity;BME280_pressure;Samples;Min_cycle;Max_cycle;Signal;HPM_P1;HPM_P2
2022/08/09 00:00:03;;;;;;;2.70;2.50;;;20.50;86.40;;;;;;6225368;28;20233;-61
2022/08/09 00:03:08;;;;;;;3.30;3.00;;;20.50;86.60;;;;;;6225798;28;20343;-60
2022/08/09 00:06:31;;;;;;;3.03;2.80;;;20.40;86.60;;;;;;6225638;28;20240;-60
2022/08/09 00:09:36;;;;;;;2.93;2.73;;;20.40;87.40;;;;;;6225721;28;20655;-60
2022/08/09 00:12:40;;;;;;;4.60;3.03;;;20.40;87.00;;;;;;6225755;28;20250;-60
2022/08/09 00:15:46;;;;;;;3.60;3.20;;;20.40;87.00;;;;;;6225609;28;20229;-60
2022/08/09 00:19:04;;;;;;;3.07;2.87;;;20.40;87.10;;;;;;6221432;28;20237;-60
2022/08/09 00:22:12;;;;;;;3.23;2.70;;;20.30;87.50;;;;;;6225284;28;20609;-60
2022/08/09 00:25:21;;;;;;;3.07;2.87;;;20.30;88.60;;;;;;6225436;28;20239;-60
2022/08/09 00:28:35;;;;;;;2.77;2.57;;;20.40;87.70;;;;;;6216006;28;20198;-60
2022/08/09 00:31:38;;;;;;;3.03;2.80;;;20.30;87.80;;;;;;6214125;28;20241;-60
2022/08/09 00:35:02;;;;;;;6.13;3.60;;;20.30;88.30;;;;;;6201323;28;20226;-60
2022/08/09 00:38:05;;;;;;;3.23;3.00;;;20.30;88.60;;;;;;6224046;28;20617;-60
2022/08/09 00:41:10;;;;;;;3.67;3.27;;;20.30;88.60;;;;;;6221290;28;20248;-60
2022/08/09 00:44:33;;;;;;;3.23;2.90;;;20.30;88.60;;;;;;6225175;28;20248;-60
2022/08/09 00:47:39;;;;;;;3.13;2.93;;;20.30;88.50;;;;;;6210078;28;20688;-60
2022/08/09 00:50:43;;;;;;;3.40;3.10;;;20.30;88.50;;;;;;6220548;28;20238;-60
2022/08/09 00:53:54;;;;;;;3.23;2.90;;;20.20;88.20;;;;;;6205053;28;20724;-60
2022/08/09 00:56:59;;;;;;;3.67;3.37;;;20.20;88.60;;;;;;6224981;28;20705;-60
2022/08/09 01:00:07;;;;;;;2.87;2.67;;;20.10;88.50;;;;;;6224819;28;20311;-60
2022/08/09 01:03:33;;;;;;;4.00;3.10;;;20.10;88.80;;;;;;6204316;28;20233;-60
2022/08/09 01:06:48;;;;;;;3.20;3.00;;;20.00;88.80;;;;;;6204939;28;20242;-60
2022/08/09 01:10:02;;;;;;;3.20;3.00;;;19.90;89.30;;;;;;6205062;28;20686;-60
2022/08/09 01:13:17;;;;;;;5.60;4.00;;;19.90;90.10;;;;;;6204755;28;20238;-60
2022/08/09 01:16:27;;;;;;;4.57;2.93;;;19.90;90.10;;;;;;6204998;28;20526;-60
2022/08/09 01:19:40;;;;;;;3.53;3.23;;;19.90;90.10;;;;;;6204956;28;20194;-60
2022/08/09 01:23:16;;;;;;;3.53;3.33;;;19.90;90.20;;;;;;6204837;28;20234;-60
2022/08/09 01:26:55;;;;;;;3.57;3.27;;;19.80;90.30;;;;;;6173728;28;20240;-60
2022/08/09 01:30:05;;;;;;;3.93;3.10;;;19.90;90.60;;;;;;6204456;28;20729;-60
2022/08/09 01:33:12;;;;;;;3.57;3.27;;;19.80;90.60;;;;;;6204327;28;20238;-60
2022/08/09 01:36:21;;;;;;;3.47;3.17;;;19.80;90.80;;;;;;6204712;28;20249;-60
2022/08/09 01:39:29;;;;;;;4.60;3.47;;;19.80;91.00;;;;;;6204625;28;20237;-60
2022/08/09 01:42:39;;;;;;;4.37;4.00;;;19.80;90.80;;;;;;6204367;28;20292;-60
2022/08/09 01:45:45;;;;;;;4.50;3.53;;;19.80;90.90;;;;;;6204421;28;20230;-60
2022/08/09 01:48:52;;;;;;;4.63;3.07;;;19.80;91.00;;;;;;6204186;28;20235;-60
2022/08/09 01:51:57;;;;;;;4.10;3.70;;;19.80;91.00;;;;;;6204066;28;20230;-59
2022/08/09 01:55:10;;;;;;;4.10;3.80;;;19.90;91.00;;;;;;6203996;28;20226;-59
2022/08/09 01:58:17;;;;;;;3.73;3.43;;;19.90;90.90;;;;;;6203969;28;20225;-59
2022/08/09 02:01:28;;;;;;;3.80;3.50;;;19.90;90.90;;;;;;6203643;28;20226;-59
2022/08/09 02:04:53;;;;;;;3.90;3.50;;;19.80;91.10;;;;;;6203951;28;20230;-60
2022/08/09 02:08:02;;;;;;;3.80;3.40;;;19.80;91.30;;;;;;6204075;28;20230;-61
2022/08/09 02:11:27;;;;;;;3.47;3.27;;;19.80;91.60;;;;;;6203654;28;20230;-61
2022/08/09 02:14:49;;;;;;;3.57;3.33;;;19.70;91.60;;;;;;6203274;28;20241;-61
2022/08/09 02:17:54;;;;;;;3.40;3.10;;;19.70;91.80;;;;;;6203914;28;20248;-61
2022/08/09 02:21:15;;;;;;;3.80;3.50;;;19.60;91.80;;;;;;6203449;28;20293;-60
2022/08/09 02:24:28;;;;;;;4.53;3.97;;;19.60;92.20;;;;;;6203278;28;20578;-61
2022/08/09 02:27:34;;;;;;;3.20;2.90;;;19.50;92.20;;;;;;6203473;28;20229;-60
2022/08/09 02:31:04;;;;;;;3.93;3.60;;;19.40;92.40;;;;;;6203401;28;20607;-60
2022/08/09 02:34:13;;;;;;;3.83;3.53;;;19.30;92.70;;;;;;6203460;28;20234;-60
2022/08/09 02:37:41;;;;;;;3.80;3.50;;;19.30;92.90;;;;;;6203102;28;20236;-60
2022/08/09 02:40:48;;;;;;;4.10;3.80;;;19.30;93.10;;;;;;6203131;28;20234;-60
2022/08/09 02:43:54;;;;;;;3.50;3.20;;;19.30;93.20;;;;;;6203007;28;20234;-61
2022/08/09 02:47:03;;;;;;;3.20;2.90;;;19.20;93.40;;;;;;6202442;28;20234;-60
2022/08/09 02:50:13;;;;;;;3.37;3.07;;;19.20;93.70;;;;;;6202879;28;20226;-60
2022/08/09 02:53:22;;;;;;;3.80;3.50;;;19.10;93.90;;;;;;6202816;28;20238;-60
2022/08/09 02:56:31;;;;;;;3.20;2.90;;;19.10;93.90;;;;;;6202882;28;20229;-60
2022/08/09 02:59:36;;;;;;;4.00;3.70;;;19.10;94.20;;;;;;6202292;28;20273;-61
2022/08/09 03:02:44;;;;;;;3.30;3.10;;;19.10;94.40;;;;;;6202161;28;20241;-61
2022/08/09 03:06:05;;;;;;;3.20;3.00;;;19.00;94.30;;;;;;6202298;28;20234;-61
2022/08/09 03:09:12;;;;;;;3.10;2.90;;;18.90;94.50;;;;;;6202617;28;20287;-61
2022/08/09 03:12:16;;;;;;;3.00;2.80;;;18.80;94.50;;;;;;6202458;28;20246;-60
2022/08/09 03:15:20;;;;;;;3.50;3.20;;;18.80;94.50;;;;;;6202226;28;20761;-60
2022/08/09 03:18:26;;;;;;;3.43;3.03;;;18.80;94.60;;;;;;6202203;28;20252;-60
2022/08/09 03:21:35;;;;;;;3.53;3.23;;;18.70;94.60;;;;;;6202054;28;20320;-60
2022/08/09 03:24:41;;;;;;;3.70;3.43;;;18.70;95.00;;;;;;6200710;28;20242;-60
2022/08/09 03:27:56;;;;;;;4.07;3.77;;;18.70;95.10;;;;;;6201963;28;20226;-60
2022/08/09 03:31:01;;;;;;;3.53;3.33;;;18.60;95.10;;;;;;6192896;28;20320;-60
2022/08/09 03:34:24;;;;;;;3.70;3.40;;;18.60;95.20;;;;;;6201748;28;20226;-60
2022/08/09 03:37:28;;;;;;;3.83;3.53;;;18.50;95.20;;;;;;6201927;28;20349;-60
2022/08/09 03:40:52;;;;;;;3.37;3.10;;;18.40;95.30;;;;;;6202189;28;20230;-60
2022/08/09 03:43:55;;;;;;;3.27;3.07;;;18.40;95.50;;;;;;6201922;28;20225;-60
2022/08/09 03:47:10;;;;;;;4.00;3.70;;;18.40;95.70;;;;;;6201975;28;20484;-61
2022/08/09 03:50:20;;;;;;;4.90;4.50;;;18.40;95.60;;;;;;6202183;28;20483;-61
2022/08/09 03:53:35;;;;;;;4.07;3.77;;;18.40;95.50;;;;;;6201931;28;20240;-61
2022/08/09 03:56:40;;;;;;;4.17;3.77;;;18.40;95.60;;;;;;6201786;28;20317;-61
2022/08/09 03:59:44;;;;;;;4.00;3.70;;;18.40;95.70;;;;;;6201625;28;20999;-61
2022/08/09 04:02:58;;;;;;;4.90;3.47;;;18.40;95.80;;;;;;6201611;28;20233;-61
2022/08/09 04:06:04;;;;;;;6.50;3.60;;;18.40;95.90;;;;;;6201355;28;20244;-61
2022/08/09 04:09:09;;;;;;;4.70;4.30;;;18.30;95.90;;;;;;6201393;28;20476;-61
2022/08/09 04:12:43;;;;;;;4.30;4.00;;;18.40;95.90;;;;;;6201117;28;20237;-61
2022/08/09 04:15:47;;;;;;;4.87;4.47;;;18.40;95.80;;;;;;6201427;28;20488;-61
2022/08/09 04:19:12;;;;;;;4.13;3.73;;;18.30;95.70;;;;;;6200971;28;20476;-60
2022/08/09 04:22:37;;;;;;;4.20;3.80;;;18.30;95.80;;;;;;6200756;28;20242;-60
2022/08/09 04:25:46;;;;;;;5.37;3.80;;;18.30;95.90;;;;;;6201011;28;20240;-60
2022/08/09 04:28:54;;;;;;;4.40;3.97;;;18.40;96.00;;;;;;6201544;28;20230;-61
2022/08/09 04:32:03;;;;;;;4.20;3.80;;;18.40;96.00;;;;;;6196747;28;20599;-60
2022/08/09 04:35:10;;;;;;;3.50;3.20;;;18.40;96.00;;;;;;6201208;28;20484;-61
2022/08/09 04:38:14;;;;;;;4.07;3.70;;;18.50;96.00;;;;;;6226817;28;20228;-62
2022/08/09 04:41:20;;;;;;;5.00;3.57;;;18.50;95.80;;;;;;6229809;28;20560;-61
2022/08/09 04:44:26;;;;;;;5.20;4.00;;;18.50;95.80;;;;;;6229068;28;20499;-62
2022/08/09 04:47:30;;;;;;;4.73;4.33;;;18.60;95.70;;;;;;6229164;28;20475;-62
2022/08/09 04:50:47;;;;;;;4.77;4.43;;;18.70;95.60;;;;;;6228664;28;20233;-61
2022/08/09 04:53:53;;;;;;;4.47;4.17;;;18.80;95.60;;;;;;6226805;28;20236;-61
2022/08/09 04:57:00;;;;;;;4.80;4.50;;;18.90;95.00;;;;;;6229675;28;20229;-61
2022/08/09 05:00:07;;;;;;;4.13;3.83;;;19.00;94.50;;;;;;6229868;28;20225;-61
2022/08/09 05:03:10;;;;;;;4.70;4.30;;;19.10;94.30;;;;;;6229676;28;20237;-61
2022/08/09 05:06:34;;;;;;;4.40;4.03;;;19.30;93.90;;;;;;6229463;28;20237;-61
2022/08/09 05:09:39;;;;;;;3.90;3.53;;;19.40;93.40;;;;;;6229263;28;20639;-61
2022/08/09 05:12:51;;;;;;;4.87;4.47;;;19.50;93.20;;;;;;6229588;28;20276;-61
2022/08/09 05:15:54;;;;;;;4.27;3.90;;;19.60;93.10;;;;;;6229127;28;20243;-61
2022/08/09 05:18:58;;;;;;;5.37;4.87;;;19.70;93.10;;;;;;6230003;28;20673;-61
2022/08/09 05:22:04;;;;;;;5.10;4.60;;;19.90;92.60;;;;;;6228384;28;20316;-61
2022/08/09 05:25:29;;;;;;;5.33;4.83;;;20.00;92.40;;;;;;6228963;28;20236;-61
2022/08/09 05:28:34;;;;;;;6.03;5.43;;;20.20;91.80;;;;;;6228787;28;20707;-61
2022/08/09 05:31:37;;;;;;;5.63;5.13;;;20.50;91.50;;;;;;6229051;28;20201;-61
2022/08/09 05:34:52;;;;;;;5.83;4.77;;;20.60;91.10;;;;;;6229051;28;20229;-61
2022/08/09 05:37:56;;;;;;;6.57;5.37;;;20.80;90.40;;;;;;6215378;28;20295;-61
2022/08/09 05:41:01;;;;;;;6.17;5.00;;;21.10;90.10;;;;;;6228790;28;20232;-61
2022/08/09 05:44:04;;;;;;;5.50;5.00;;;21.40;88.40;;;;;;6228905;28;20229;-61
2022/08/09 05:47:07;;;;;;;5.33;4.87;;;21.80;86.70;;;;;;6228669;28;20232;-62
2022/08/09 05:50:11;;;;;;;5.00;4.67;;;22.20;85.30;;;;;;6228716;28;20233;-61
2022/08/09 05:53:34;;;;;;;4.73;4.43;;;22.70;83.10;;;;;;6228505;28;20708;-61
2022/08/09 05:56:58;;;;;;;4.93;4.53;;;23.20;81.00;;;;;;6229129;28;20237;-61
2022/08/09 06:00:02;;;;;;;8.13;5.03;;;23.70;79.20;;;;;;6228895;28;20557;-61
2022/08/09 06:03:09;;;;;;;5.10;4.70;;;24.20;77.30;;;;;;6229169;28;20237;-62
2022/08/09 06:06:22;;;;;;;4.90;4.10;;;24.60;75.00;;;;;;6227943;28;20668;-61
2022/08/09 06:09:26;;;;;;;4.43;4.13;;;24.90;74.40;;;;;;6227760;28;20748;-61
2022/08/09 06:12:51;;;;;;;5.10;4.40;;;25.30;73.00;;;;;;6227450;28;20240;-61
2022/08/09 06:16:14;;;;;;;4.60;4.20;;;26.10;70.30;;;;;;6228413;28;20555;-62
2022/08/09 06:19:19;;;;;;;4.20;3.80;;;26.60;68.30;;;;;;6227990;28;20231;-62
2022/08/09 06:22:22;;;;;;;5.30;4.50;;;26.90;65.90;;;;;;6228068;28;20252;-62
2022/08/09 06:25:31;;;;;;;5.57;4.40;;;27.50;64.50;;;;;;6228412;28;20215;-61
2022/08/09 06:28:37;;;;;;;4.23;3.83;;;27.70;62.40;;;;;;6228277;28;20217;-61
2022/08/09 06:31:45;;;;;;;6.10;4.33;;;28.10;60.90;;;;;;6228034;28;20247;-61
2022/08/09 06:35:09;;;;;;;4.40;4.00;;;28.90;58.80;;;;;;6228003;28;20216;-62
2022/08/09 06:38:13;;;;;;;3.87;3.43;;;29.40;56.20;;;;;;6228216;28;20220;-62
2022/08/09 06:41:18;;;;;;;4.57;3.90;;;30.00;55.60;;;;;;6219179;28;20318;-63
2022/08/09 06:44:23;;;;;;;5.17;3.00;;;30.50;53.60;;;;;;6227554;28;20271;-62
2022/08/09 06:47:28;;;;;;;3.80;3.50;;;31.00;52.30;;;;;;6228139;28;20252;-62
2022/08/09 06:50:42;;;;;;;3.25;2.95;;;31.70;50.30;;;;;;6227433;28;20229;-62
2022/08/09 06:53:45;;;;;;;3.83;3.42;;;32.20;49.10;;;;;;6226786;28;20342;-62
2022/08/09 06:56:51;;;;;;;5.35;3.05;;;33.00;47.90;;;;;;6226898;28;20624;-62
2022/08/09 06:59:56;;;;;;;3.47;3.17;;;33.40;46.20;;;;;;6226195;28;20540;-62
2022/08/09 07:03:19;;;;;;;2.80;2.60;;;33.80;44.30;;;;;;6226602;28;20233;-62
2022/08/09 07:06:30;;;;;;;3.78;2.85;;;34.20;42.90;;;;;;6227278;28;20259;-62
2022/08/09 07:09:34;;;;;;;3.40;3.15;;;34.70;42.30;;;;;;6226659;28;20228;-62
2022/08/09 07:12:57;;;;;;;3.05;2.72;;;35.30;40.40;;;;;;6227172;28;20244;-62
2022/08/09 07:16:01;;;;;;;3.15;2.60;;;35.30;39.10;;;;;;6226881;28;20235;-63
2022/08/09 07:19:25;;;;;;;2.72;2.35;;;35.90;37.80;;;;;;6226124;28;20232;-63
2022/08/09 07:22:29;;;;;;;3.25;2.78;;;36.90;37.20;;;;;;6226510;28;20676;-63
2022/08/09 07:25:38;;;;;;;3.35;2.50;;;37.70;36.30;;;;;;6227181;28;20520;-63
2022/08/09 07:28:45;;;;;;;2.88;2.60;;;38.30;34.60;;;;;;6226492;28;20264;-63
2022/08/09 07:32:09;;;;;;;3.97;2.60;;;38.90;33.00;;;;;;6226246;28;20229;-63
2022/08/09 07:35:13;;;;;;;2.78;2.22;;;39.00;32.10;;;;;;6226610;28;20232;-63
2022/08/09 07:38:16;;;;;;;3.00;2.70;;;39.40;31.50;;;;;;6226159;28;20235;-62
2022/08/09 07:41:21;;;;;;;2.90;2.60;;;39.50;31.00;;;;;;6225981;28;20228;-62
2022/08/09 07:44:24;;;;;;;2.25;2.05;;;39.80;30.00;;;;;;6221344;28;20228;-62
2022/08/09 07:47:49;;;;;;;3.08;2.88;;;40.40;30.10;;;;;;6226641;28;20232;-63
2022/08/09 07:51:06;;;;;;;2.70;2.50;;;41.30;29.30;;;;;;6226967;28;20232;-62
2022/08/09 07:54:30;;;;;;;3.08;2.60;;;42.50;28.10;;;;;;6226009;28;20688;-62
2022/08/09 07:57:34;;;;;;;2.78;2.53;;;41.90;27.40;;;;;;6225879;28;20229;-62
2022/08/09 08:00:38;;;;;;;2.30;2.10;;;41.80;27.70;;;;;;6225631;28;20241;-62
2022/08/09 08:04:03;;;;;;;4.20;2.63;;;43.00;27.00;;;;;;6225640;28;20673;-62
2022/08/09 08:07:12;;;;;;;2.30;2.20;;;44.30;25.70;;;;;;6225760;28;20240;-62
2022/08/09 08:10:36;;;;;;;2.10;2.00;;;45.10;25.10;;;;;;6224752;28;20415;-62
2022/08/09 08:13:40;;;;;;;2.22;2.05;;;45.60;24.50;;;;;;6225337;28;20691;-62
2022/08/09 08:16:58;;;;;;;3.00;2.05;;;45.60;23.90;;;;;;6223103;28;20216;-63
2022/08/09 08:20:12;;;;;;;2.45;1.90;;;45.60;23.50;;;;;;6225129;28;20281;-62
2022/08/09 08:23:17;;;;;;;2.20;2.00;;;45.80;22.90;;;;;;6224667;28;20556;-62
2022/08/09 08:26:20;;;;;;;2.38;2.03;;;47.00;22.90;;;;;;6224244;28;20688;-62
2022/08/09 08:29:43;;;;;;;2.88;2.30;;;47.80;21.90;;;;;;6223428;28;20220;-62
2022/08/09 08:32:52;;;;;;;2.40;2.20;;;47.50;21.70;;;;;;6224438;28;20230;-63
2022/08/09 08:35:57;;;;;;;2.33;2.05;;;47.50;21.70;;;;;;6224973;28;20266;-62
2022/08/09 08:39:05;;;;;;;2.45;2.25;;;47.90;21.20;;;;;;6225148;28;20406;-62
2022/08/09 08:42:13;;;;;;;3.15;1.88;;;48.40;20.70;;;;;;6221758;28;20394;-62
2022/08/09 08:45:29;;;;;;;2.78;1.92;;;47.80;20.90;;;;;;6224376;28;20252;-62
2022/08/09 08:48:40;;;;;;;4.93;2.40;;;47.70;21.10;;;;;;6214801;28;20224;-61
2022/08/09 08:51:55;;;;;;;2.83;2.63;;;47.30;21.10;;;;;;6222582;28;20543;-63
2022/08/09 08:55:06;;;;;;;2.28;1.95;;;46.20;21.70;;;;;;6208330;28;20228;-63
2022/08/09 08:58:10;;;;;;;2.55;2.35;;;44.30;22.80;;;;;;6224544;28;20244;-63
2022/08/09 09:01:15;;;;;;;2.45;2.25;;;43.10;23.20;;;;;;6224317;28;20246;-63
2022/08/09 09:04:29;;;;;;;2.72;2.40;;;41.80;24.00;;;;;;6224376;28;20220;-62
2022/08/09 09:07:45;;;;;;;2.35;1.95;;;40.30;24.90;;;;;;6224645;28;20205;-62
2022/08/09 09:10:52;;;;;;;3.10;2.33;;;38.80;26.00;;;;;;6224104;28;20225;-62
2022/08/09 09:13:57;;;;;;;4.07;2.50;;;37.80;27.00;;;;;;6223825;28;20243;-62
2022/08/09 09:17:01;;;;;;;2.83;2.30;;;36.90;27.90;;;;;;6220406;28;20534;-62
2022/08/09 09:20:09;;;;;;;2.53;2.33;;;36.00;28.80;;;;;;6222666;28;20657;-61
2022/08/09 09:23:29;;;;;;;3.95;2.60;;;35.20;29.40;;;;;;6224732;28;20235;-61
2022/08/09 09:26:40;;;;;;;4.25;2.90;;;34.40;29.90;;;;;;6225860;28;20236;-62
2022/08/09 09:29:49;;;;;;;2.58;2.38;;;33.60;31.00;;;;;;6227789;28;20684;-62
2022/08/09 09:33:13;;;;;;;2.60;2.40;;;33.00;31.60;;;;;;6228282;28;20704;-61
2022/08/09 09:36:19;;;;;;;2.50;2.30;;;32.50;32.90;;;;;;6228483;28;20561;-62
2022/08/09 09:39:26;;;;;;;2.22;2.03;;;32.20;32.90;;;;;;6228364;28;20616;-61
2022/08/09 09:42:56;;;;;;;2.65;2.45;;;31.80;32.80;;;;;;6227726;28;20228;-62
2022/08/09 09:46:01;;;;;;;2.25;1.70;;;31.30;33.40;;;;;;6228418;28;20676;-61
2022/08/09 09:49:26;;;;;;;3.03;1.65;;;30.80;32.10;;;;;;6222519;28;20229;-61
2022/08/09 09:52:50;;;;;;;4.25;2.03;;;30.50;33.30;;;;;;6228176;28;20232;-61
2022/08/09 09:56:00;;;;;;;3.22;2.10;;;30.50;33.70;;;;;;6227292;28;20735;-63
2022/08/09 09:59:08;;;;;;;3.70;3.47;;;30.60;34.20;;;;;;6227437;28;20306;-61
2022/08/09 10:02:12;;;;;;;2.28;1.77;;;30.70;34.20;;;;;;6227576;28;20549;-63
2022/08/09 10:05:17;;;;;;;2.03;1.83;;;30.70;33.60;;;;;;6227975;28;20237;-61
2022/08/09 10:08:29;;;;;;;1.85;1.75;;;30.80;33.30;;;;;;6227768;28;20252;-62
2022/08/09 10:11:36;;;;;;;1.77;1.67;;;30.80;33.20;;;;;;6226864;28;20267;-62
2022/08/09 10:15:10;;;;;;;3.25;1.48;;;30.80;33.50;;;;;;6227660;28;20229;-62
2022/08/09 10:18:27;;;;;;;2.85;2.15;;;31.00;32.50;;;;;;6249739;28;20246;-62
2022/08/09 10:21:31;;;;;;;4.00;2.28;;;31.10;32.70;;;;;;6251807;28;20235;-62
2022/08/09 10:24:35;;;;;;;1.98;1.88;;;31.10;32.20;;;;;;6240898;28;20228;-62
2022/08/09 10:27:42;;;;;;;1.90;1.80;;;31.10;32.50;;;;;;6227303;28;20312;-62
2022/08/09 10:31:00;;;;;;;3.17;2.97;;;31.00;33.50;;;;;;6227478;28;20695;-62
2022/08/09 10:34:24;;;;;;;2.63;1.92;;;30.90;32.80;;;;;;6226136;28;20661;-62
2022/08/09 10:37:36;;;;;;;2.92;2.30;;;30.80;34.90;;;;;;6227082;28;20189;-62
2022/08/09 10:40:43;;;;;;;2.42;2.22;;;31.10;34.80;;;;;;6226530;28;20224;-62
2022/08/09 10:43:53;;;;;;;2.40;2.20;;;31.10;34.10;;;;;;6226694;28;20233;-63
2022/08/09 10:47:31;;;;;;;2.13;1.80;;;31.10;34.60;;;;;;6227258;28;20563;-61
2022/08/09 10:51:10;;;;;;;2.05;1.70;;;31.00;33.00;;;;;;6206043;28;20242;-63
2022/08/09 10:54:15;;;;;;;2.28;2.08;;;30.60;33.10;;;;;;6207528;28;20228;-62
2022/08/09 10:57:18;;;;;;;2.35;2.15;;;30.60;33.10;;;;;;6212477;28;20243;-62
2022/08/09 11:00:38;;;;;;;2.40;2.20;;;30.70;33.90;;;;;;6225943;28;20541;-62
2022/08/09 11:04:20;;;;;;;3.03;2.10;;;30.80;33.90;;;;;;6226311;28;20233;-62
2022/08/09 11:07:34;;;;;;;3.15;1.80;;;30.70;33.90;;;;;;6226775;28;20209;-62
2022/08/09 11:10:57;;;;;;;2.03;1.85;;;30.70;33.90;;;;;;6225793;28;20678;-62
2022/08/09 11:14:32;;;;;;;2.55;2.35;;;30.60;33.70;;;;;;6226476;28;20224;-62
2022/08/09 11:17:48;;;;;;;2.00;1.90;;;30.50;33.80;;;;;;6225955;28;20233;-62
2022/08/09 11:20:59;;;;;;;2.00;1.90;;;30.80;33.70;;;;;;6225820;28;20243;-62
2022/08/09 11:24:02;;;;;;;2.15;1.95;;;31.00;33.50;;;;;;6219619;28;20224;-61
2022/08/09 11:27:30;;;;;;;1.70;1.60;;;31.10;32.70;;;;;;6201381;28;20233;-62
2022/08/09 11:30:53;;;;;;;2.20;2.00;;;31.30;32.50;;;;;;6214855;28;20225;-62
2022/08/09 11:34:03;;;;;;;2.15;1.70;;;31.40;32.30;;;;;;6225519;28;20240;-62
2022/08/09 11:37:08;;;;;;;2.13;1.90;;;31.50;32.80;;;;;;6225835;28;20237;-62
2022/08/09 11:40:29;;;;;;;2.30;2.10;;;31.60;33.50;;;;;;6224509;28;20660;-62
2022/08/09 11:43:40;;;;;;;3.10;2.15;;;31.80;33.10;;;;;;6225327;28;20303;-64
2022/08/09 11:46:55;;;;;;;2.83;2.15;;;31.70;33.00;;;;;;6225095;28;20240;-63
2022/08/09 11:50:02;;;;;;;3.60;2.33;;;31.70;33.80;;;;;;6212215;28;20567;-62
2022/08/09 11:53:27;;;;;;;4.22;2.58;;;31.70;33.30;;;;;;6200851;28;20252;-63
2022/08/09 11:56:50;;;;;;;2.08;1.88;;;31.70;33.70;;;;;;6221498;28;20232;-62
2022/08/09 11:59:53;;;;;;;2.20;1.80;;;31.70;32.60;;;;;;6216090;28;20240;-62
2022/08/09 12:02:57;;;;;;;3.13;2.00;;;31.60;32.00;;;;;;6224380;28;20244;-62
2022/08/09 12:06:11;;;;;;;2.20;2.00;;;31.60;32.50;;;;;;6224380;28;20676;-61
2022/08/09 12:09:14;;;;;;;3.65;2.22;;;31.70;32.70;;;;;;6224735;28;20232;-63
2022/08/09 12:12:23;;;;;;;4.32;1.75;;;31.70;32.20;;;;;;6222705;28;20225;-62
2022/08/09 12:15:33;;;;;;;6.68;2.30;;;31.70;32.20;;;;;;6225199;28;20237;-63
2022/08/09 12:18:53;;;;;;;2.80;2.17;;;31.80;32.60;;;;;;6200978;28;20237;-62
2022/08/09 12:22:03;;;;;;;1.88;1.63;;;31.80;32.10;;;;;;6200432;28;20233;-62
2022/08/09 12:25:13;;;;;;;2.47;2.15;;;31.70;32.10;;;;;;6166407;28;20312;-62
2022/08/09 12:28:19;;;;;;;2.92;2.15;;;31.40;31.90;;;;;;6176233;28;20237;-62
2022/08/09 12:31:44;;;;;;;2.95;2.33;;;31.30;32.90;;;;;;6176298;28;20577;-62
2022/08/09 12:35:07;;;;;;;2.22;2.03;;;31.30;32.70;;;;;;6176849;28;20225;-61
2022/08/09 12:38:21;;;;;;;2.63;2.40;;;31.20;32.90;;;;;;6176541;28;20272;-61
2022/08/09 12:41:40;;;;;;;2.58;1.83;;;31.20;33.20;;;;;;6175996;28;20533;-61
2022/08/09 12:44:45;;;;;;;2.70;2.15;;;31.20;31.90;;;;;;6176411;28;20225;-62
2022/08/09 12:47:56;;;;;;;2.03;1.85;;;31.30;32.60;;;;;;6176303;28;20821;-62
2022/08/09 12:51:00;;;;;;;2.00;1.90;;;31.40;32.70;;;;;;6158560;28;20222;-62
2022/08/09 12:54:08;;;;;;;2.67;2.00;;;31.30;33.00;;;;;;6176354;28;20317;-62
2022/08/09 12:57:11;;;;;;;2.22;2.03;;;31.30;32.40;;;;;;6177449;28;20666;-62
2022/08/09 13:00:17;;;;;;;2.63;2.30;;;31.30;32.90;;;;;;6178645;28;20244;-62
2022/08/09 13:03:28;;;;;;;2.38;2.17;;;31.30;33.40;;;;;;6175584;28;20233;-62
2022/08/09 13:06:52;;;;;;;3.17;2.20;;;31.20;33.90;;;;;;6180821;28;20230;-62
2022/08/09 13:10:04;;;;;;;2.35;2.15;;;31.10;33.30;;;;;;6179947;28;20249;-63
2022/08/09 13:13:07;;;;;;;2.10;1.90;;;31.00;33.80;;;;;;6180153;28;20234;-62
2022/08/09 13:16:15;;;;;;;2.38;2.17;;;31.00;33.50;;;;;;6179053;28;20261;-62
2022/08/09 13:19:25;;;;;;;2.30;2.10;;;31.00;33.80;;;;;;6177410;28;20222;-62
2022/08/09 13:22:49;;;;;;;2.40;2.13;;;30.80;33.70;;;;;;6182653;28;20667;-62
2022/08/09 13:26:09;;;;;;;2.67;2.47;;;30.20;34.40;;;;;;6228203;28;20673;-63
2022/08/09 13:29:14;;;;;;;2.53;2.10;;;30.40;34.80;;;;;;6228947;28;20310;-62
2022/08/09 13:32:18;;;;;;;3.25;2.42;;;30.50;34.60;;;;;;6227711;28;20220;-62
2022/08/09 13:35:30;;;;;;;2.97;2.67;;;30.60;34.70;;;;;;6224767;28;20228;-63
2022/08/09 13:38:54;;;;;;;2.38;2.17;;;30.60;34.60;;;;;;6227670;28;20228;-62
2022/08/09 13:42:07;;;;;;;3.13;2.05;;;30.60;34.50;;;;;;6227488;28;20235;-62
2022/08/09 13:45:15;;;;;;;3.13;2.70;;;30.60;35.10;;;;;;6227116;28;20251;-64
2022/08/09 13:48:19;;;;;;;3.42;2.22;;;30.50;34.50;;;;;;6227718;28;20288;-64
2022/08/09 13:51:23;;;;;;;4.65;2.47;;;30.50;34.80;;;;;;6202645;28;20232;-63
2022/08/09 13:54:29;;;;;;;2.88;2.67;;;30.50;34.80;;;;;;6203440;28;20583;-63
2022/08/09 13:57:35;;;;;;;2.67;2.47;;;30.30;34.80;;;;;;6203560;28;20237;-63
2022/08/09 14:00:42;;;;;;;2.55;2.35;;;30.10;35.20;;;;;;6225889;28;20232;-63
2022/08/09 14:03:54;;;;;;;3.28;2.97;;;30.00;35.80;;;;;;6227730;28;20243;-63
2022/08/09 14:07:06;;;;;;;4.82;3.00;;;30.00;35.80;;;;;;6227856;28;20669;-63
2022/08/09 14:10:12;;;;;;;2.60;2.40;;;29.90;36.20;;;;;;6225698;28;20232;-63
2022/08/09 14:13:32;;;;;;;2.80;2.60;;;29.90;36.60;;;;;;6227819;28;20224;-63
2022/08/09 14:16:55;;;;;;;3.13;2.85;;;29.80;36.70;;;;;;6227557;28;20228;-63
2022/08/09 14:20:00;;;;;;;5.72;2.85;;;29.90;37.30;;;;;;6228155;28;20232;-62
2022/08/09 14:23:06;;;;;;;3.33;3.03;;;29.90;36.50;;;;;;6227125;28;20307;-63
2022/08/09 14:26:09;;;;;;;5.00;3.90;;;29.90;36.60;;;;;;6225951;28;20311;-63
2022/08/09 14:29:17;;;;;;;3.03;2.65;;;29.80;36.30;;;;;;6226379;28;20224;-63
2022/08/09 14:32:40;;;;;;;3.85;2.90;;;29.80;36.50;;;;;;6202020;28;20548;-63
2022/08/09 14:35:44;;;;;;;3.13;2.92;;;29.90;37.40;;;;;;6202684;28;20237;-63
2022/08/09 14:38:55;;;;;;;3.00;2.70;;;29.80;38.10;;;;;;6202901;28;20261;-62
2022/08/09 14:41:58;;;;;;;3.33;2.93;;;29.90;38.30;;;;;;6202615;28;20672;-62
2022/08/09 14:45:05;;;;;;;3.27;2.50;;;29.80;38.60;;;;;;6247007;28;20223;-64
2022/08/09 14:48:28;;;;;;;3.72;3.33;;;29.80;39.10;;;;;;6249749;28;20263;-63
2022/08/09 14:51:32;;;;;;;3.10;2.80;;;29.80;39.10;;;;;;6226998;28;20254;-64
2022/08/09 14:54:44;;;;;;;3.30;3.00;;;29.70;38.80;;;;;;6226316;28;20239;-63
2022/08/09 14:57:49;;;;;;;3.10;2.90;;;29.70;39.20;;;;;;6214429;28;20236;-63
2022/08/09 15:00:54;;;;;;;2.65;2.45;;;29.80;39.40;;;;;;6226224;28;20239;-63
2022/08/09 15:03:59;;;;;;;4.10;3.80;;;29.80;39.60;;;;;;6226682;28;20352;-63
2022/08/09 15:07:03;;;;;;;3.20;2.90;;;29.80;40.60;;;;;;6206111;28;20233;-62
2022/08/09 15:10:12;;;;;;;3.57;3.23;;;29.70;41.30;;;;;;6201843;28;20233;-63
2022/08/09 15:13:18;;;;;;;3.87;3.47;;;29.60;41.40;;;;;;6192707;28;20244;-63
2022/08/09 15:16:27;;;;;;;3.27;2.97;;;29.50;41.00;;;;;;6203219;28;20295;-63
2022/08/09 15:19:33;;;;;;;5.23;3.13;;;29.50;41.40;;;;;;6225312;28;20217;-62
2022/08/09 15:22:39;;;;;;;3.80;3.50;;;29.50;41.60;;;;;;6225174;28;20252;-62
2022/08/09 15:25:49;;;;;;;4.10;3.40;;;29.40;42.50;;;;;;6225379;28;20228;-63
2022/08/09 15:28:52;;;;;;;4.60;2.70;;;29.20;42.50;;;;;;6226014;28;20224;-63
2022/08/09 15:31:58;;;;;;;4.50;4.10;;;29.20;43.00;;;;;;6225712;28;20238;-63
2022/08/09 15:35:02;;;;;;;3.23;2.90;;;29.20;43.30;;;;;;6225947;28;20279;-62
2022/08/09 15:38:25;;;;;;;3.23;2.93;;;29.20;42.70;;;;;;6225240;28;20563;-61
2022/08/09 15:41:29;;;;;;;4.10;3.47;;;29.30;43.10;;;;;;6225531;28;20224;-62
2022/08/09 15:44:34;;;;;;;5.00;3.80;;;29.20;42.90;;;;;;6225174;28;20576;-61
2022/08/09 15:47:39;;;;;;;4.90;3.20;;;29.20;43.20;;;;;;6225701;28;20235;-62
2022/08/09 15:50:54;;;;;;;3.50;3.20;;;29.20;43.30;;;;;;6204283;28;20236;-62
2022/08/09 15:53:59;;;;;;;3.50;2.83;;;29.20;43.30;;;;;;6200972;28;20236;-62
2022/08/09 15:57:14;;;;;;;2.93;2.70;;;29.20;43.60;;;;;;6200562;28;20229;-62
2022/08/09 16:00:37;;;;;;;2.90;2.70;;;29.10;43.00;;;;;;6222239;28;20684;-62
2022/08/09 16:03:42;;;;;;;3.90;3.50;;;29.10;42.90;;;;;;6225978;28;20236;-62
2022/08/09 16:06:46;;;;;;;3.20;3.00;;;29.20;42.50;;;;;;6225375;28;20243;-62
2022/08/09 16:09:52;;;;;;;4.13;3.07;;;29.20;42.50;;;;;;6224991;28;20243;-62
2022/08/09 16:13:07;;;;;;;3.90;2.97;;;29.10;42.40;;;;;;6224549;28;20244;-63
2022/08/09 16:16:22;;;;;;;3.27;2.97;;;29.00;42.70;;;;;;6213098;28;20233;-61
2022/08/09 16:19:31;;;;;;;2.60;2.40;;;29.00;44.10;;;;;;6222494;28;20213;-60
2022/08/09 16:22:40;;;;;;;2.87;2.67;;;29.10;44.00;;;;;;6221593;28;20247;-61
2022/08/09 16:25:50;;;;;;;3.57;2.47;;;29.20;44.00;;;;;;6220187;28;20259;-61
2022/08/09 16:29:05;;;;;;;3.20;2.90;;;29.30;44.40;;;;;;6223557;28;20229;-61
2022/08/09 16:32:14;;;;;;;3.83;2.97;;;29.30;43.40;;;;;;6226705;28;20231;-61
2022/08/09 16:35:39;;;;;;;3.63;2.53;;;29.40;44.20;;;;;;6228523;28;20225;-61